Photo de Laille
Rennes
Ciel dégagé
Metar : 2017/07/22 04:30 LFRN 220430Z AUTO 20005KT CAVOK 13/12 Q1010 NOSIG
Couverture nuageuse :
Pression de 29.83 inHg (1010 hPa)
Humidité : 94%
Température : 55°F (13°C)
Vent de SSW at 6 mph (9 km/h)
Visibilité : greater than 7 miles (10 km)
Nantes

Metar : 2017/07/22 04:30 LFRS 220430Z AUTO VRB03KT 9999 1000 R03/1600D R21/P2000 FEW016 14/13 Q1011 NOSIG
Couverture nuageuse :
Traduc : Partly cloudy 700 ft
Pression de
Humidité :
Température :
Point de rosée :
Vent de varies at 3 mph (6 km/h)
Visibilité : 6 miles (10 km)
Lannion
couvert
Metar : 2017/07/22 04:30 LFRO 220430Z AUTO 18005KT 9999 FEW029 OVC170 12/11 Q1008
Couverture nuageuse : Few Clouds 2900 ft Overcast 17000 ft
Traduc : Partly cloudy 700 ft
Pression de 29.77 inHg (1008 hPa)
Humidité : 94%
Température : 54°F (12°C)
Point de rosée : 52°F (11°C)
Vent de S at 6 mph (9 km/h)
Visibilité : 6 miles (10 km)
Dinard
Ciel dégagé
Metar : 2017/07/22 04:30 LFRD 220430Z AUTO 20006KT CAVOK 12/11 Q1009 TEMPO 22015G25KT SHRA BKN020TCU
Couverture nuageuse :
Traduc : Partly cloudy 700 ft
Pression de 29.8 inHg (1009 hPa)
Humidité : 94%
Température : 54°F (12°C)
Point de rosée : 52°F (11°C)
Vent de SSW at 7 mph (11 km/h)
Visibilité : greater than 7 miles (10 km)
Brest
couvert
Metar : 2017/07/22 04:30 LFRB 220430Z AUTO 23009KT 9999 FEW023 SCT028 OVC160 14/12 Q1008 TEMPO 22015G25KT SHRA BKN020TCU
Couverture nuageuse : Few Clouds 2300 ft Partly Cloudy 2800 ft Overcast 16000 ft
Traduc : Partly cloudy 700 ft
Pression de 29.77 inHg (1008 hPa)
Humidité : 88%
Température : 57°F (14°C)
Point de rosée : 54°F (12°C)
Vent de SW at 10 mph (17 km/h)
Visibilité : 6 miles (10 km)
Quimper
couvert
Metar : 2017/07/22 04:30 LFRQ 220430Z AUTO 21003KT 180V240 9999 FEW022 SCT058 OVC120 13/11 Q1009
Couverture nuageuse : Few Clouds 2200 ft Partly Cloudy 5800 ft Overcast 12000 ft
Traduc : Partly cloudy 700 ft
Pression de 29.8 inHg (1009 hPa)
Humidité : 88%
Température : 55°F (13°C)
Point de rosée : 52°F (11°C)
Vent de SSW at 3 mph (6 km/h)
Visibilité : 6 miles (10 km)
St Nazaire
Ciel dégagé
Metar : 2017/07/22 04:30 LFRZ 220430Z AUTO 23004KT CAVOK 14/12 Q1010 NOSIG
Couverture nuageuse :
Traduc : Partly cloudy 700 ft
Pression de 29.83 inHg (1010 hPa)
Humidité : 88%
Température : 57°F (14°C)
Point de rosée : 54°F (12°C)
Vent de SW at 5 mph (7 km/h)
Visibilité : greater than 7 miles (10 km)
St Brieuc
Ciel dégagé
Metar : 2017/07/21 21:00 LFRT 212100Z AUTO VRB03KT CAVOK 13/13 Q1007
Couverture nuageuse :
Traduc : Partly cloudy 700 ft
Pression de 29.74 inHg (1007 hPa)
Humidité : 100%
Température : 55°F (13°C)
Point de rosée : 55°F (13°C)
Vent de varies at 3 mph (6 km/h)
Visibilité : greater than 7 miles (10 km)
Lorient
Pluie, nuageux
Metar : 2017/07/22 04:30 LFRH 220430Z AUTO 26008KT 8000 RA FEW021 SCT026 BKN037 14/12 Q1010 TEMPO NSW
Couverture nuageuse : Few Clouds 2100 ft Partly Cloudy 2600 ft Mostly Cloudy 3700 ft
Traduc : Partly cloudy 700 ft
Pression de 29.83 inHg (1010 hPa)
Humidité : 88%
Température : 57°F (14°C)
Point de rosée : 54°F (12°C)
Vent de W at 9 mph (15 km/h)
Visibilité : 5 miles (8 km)
Vannes-Meucon
nuageux
Metar : 2017/07/22 04:30 LFRV 220430Z AUTO 22003KT 190V250 9999 FEW023 BKN062 BKN160 13/11 Q1010
Couverture nuageuse : Few Clouds 2300 ft Mostly Cloudy 6200 ft Mostly Cloudy 16000 ft
Traduc : Partly cloudy 700 ft
Pression de 29.83 inHg (1010 hPa)
Humidité : 88%
Température : 55°F (13°C)
Point de rosée : 52°F (11°C)
Vent de SW at 3 mph (6 km/h)
Visibilité : 6 miles (10 km)

 


   Weather Underground PWS IBRETAGN39      Weather Underground PWS IBRETAGN39Retour Météo-Laillé adhérent de Météo-Bretagne et d'Infoclimat. Données mises à jour en temps réel via Météolink Climatologie réalisée sous Wswin et GraphWeather.

Affichage prévisions météo de WeatherUnderground via script PHP de Saratoga.

Copyright 2012-2017